createdAt,value
2022-12-13T00:00:02.712Z,-12.42
2022-12-13T00:02:30.625Z,-12.42
2022-12-13T00:05:01.549Z,-12.47
2022-12-13T00:07:29.267Z,-12.51
2022-12-13T00:09:57.234Z,-12.53
2022-12-13T00:12:26.364Z,-12.54
2022-12-13T00:14:58.917Z,-12.45
2022-12-13T00:17:26.694Z,-12.55
2022-12-13T00:19:54.782Z,-12.55
2022-12-13T00:22:22.444Z,-12.59
2022-12-13T00:24:55.053Z,-12.60
2022-12-13T00:27:23.281Z,-12.70
2022-12-13T00:29:52.347Z,-12.68
2022-12-13T00:32:20.216Z,-12.77
2022-12-13T00:34:48.175Z,-12.79
2022-12-13T00:37:15.883Z,-12.82
2022-12-13T00:39:43.610Z,-12.85
2022-12-13T00:42:11.295Z,-12.88
2022-12-13T00:44:38.997Z,-12.90
2022-12-13T00:47:08.054Z,-12.96
2022-12-13T00:49:35.757Z,-12.97
2022-12-13T00:52:03.504Z,-12.94
2022-12-13T00:54:31.264Z,-12.98
2022-12-13T00:56:58.958Z,-12.98
2022-12-13T00:59:27.088Z,-13.03
2022-12-13T01:01:54.819Z,-13.01
2022-12-13T01:04:23.885Z,-12.97
2022-12-13T01:06:51.617Z,-12.97
2022-12-13T01:09:21.117Z,-12.96
2022-12-13T01:11:49.811Z,-12.94
2022-12-13T01:14:18.520Z,-13.03
2022-12-13T01:16:46.298Z,-12.97
2022-12-13T01:19:14.115Z,-13.00
2022-12-13T01:21:44.914Z,-13.00
2022-12-13T01:24:12.634Z,-12.97
2022-12-13T01:26:40.345Z,-12.85
2022-12-13T01:29:08.993Z,-12.84
2022-12-13T01:31:41.308Z,-12.80
2022-12-13T01:34:10.604Z,-12.79
2022-12-13T01:36:39.211Z,-12.79
2022-12-13T01:39:15.270Z,-12.88
2022-12-13T01:41:44.562Z,-12.75
2022-12-13T01:44:45.404Z,-12.79
2022-12-13T01:47:14.305Z,-12.72
2022-12-13T01:49:42.817Z,-12.67
2022-12-13T01:52:14.579Z,-12.68
2022-12-13T01:54:48.773Z,-12.75
2022-12-13T01:57:20.096Z,-12.67
2022-12-13T01:59:49.602Z,-12.71
2022-12-13T02:02:19.583Z,-12.86
2022-12-13T02:04:54.229Z,-12.81
2022-12-13T02:07:24.404Z,-12.96
2022-12-13T02:09:56.993Z,-13.00
2022-12-13T02:12:29.398Z,-12.95
2022-12-13T02:15:00.508Z,-13.01
2022-12-13T02:17:45.095Z,-12.95
2022-12-13T02:20:44.401Z,-12.93
2022-12-13T02:23:42.011Z,-12.97
2022-12-13T02:26:40.636Z,-13.00
2022-12-13T02:29:37.889Z,-13.05
2022-12-13T02:32:16.007Z,-13.05
2022-12-13T02:34:48.939Z,-13.10
2022-12-13T02:37:24.690Z,-13.13
2022-12-13T02:39:58.042Z,-13.16
2022-12-13T02:42:28.843Z,-13.18
2022-12-13T02:45:02.201Z,-13.21
2022-12-13T02:47:32.938Z,-13.29
2022-12-13T02:50:05.695Z,-13.26
2022-12-13T02:52:34.009Z,-13.27
2022-12-13T02:55:07.198Z,-13.28
2022-12-13T02:57:37.326Z,-13.38
2022-12-13T03:00:09.497Z,-13.41
2022-12-13T03:02:46.574Z,-13.38
2022-12-13T03:05:40.160Z,-13.36
2022-12-13T03:08:21.667Z,-13.34
2022-12-13T03:10:59.921Z,-13.29
2022-12-13T03:13:36.682Z,-13.31
2022-12-13T03:16:11.998Z,-13.26
2022-12-13T03:18:42.704Z,-13.30
2022-12-13T03:21:10.961Z,-13.23
2022-12-13T03:23:39.460Z,-13.13
2022-12-13T03:26:12.324Z,-13.02
2022-12-13T03:28:40.749Z,-12.88
2022-12-13T03:31:09.125Z,-12.82
2022-12-13T03:33:38.713Z,-12.71
2022-12-13T03:36:08.951Z,-12.57
2022-12-13T03:38:36.996Z,-12.44
2022-12-13T03:41:08.427Z,-12.35
2022-12-13T03:43:36.345Z,-12.32
2022-12-13T03:46:04.152Z,-12.28
2022-12-13T03:48:31.895Z,-12.22
2022-12-13T03:50:59.563Z,-12.15
2022-12-13T03:53:32.557Z,-12.25
2022-12-13T03:56:02.113Z,-12.25
2022-12-13T03:58:36.524Z,-12.39
2022-12-13T04:01:07.028Z,-12.41
2022-12-13T04:03:34.876Z,-12.44
2022-12-13T04:06:02.695Z,-12.55
2022-12-13T04:08:32.089Z,-12.59
2022-12-13T04:10:59.867Z,-12.56
2022-12-13T04:13:32.516Z,-12.53
2022-12-13T04:16:00.589Z,-12.43
2022-12-13T04:18:28.372Z,-12.51
2022-12-13T04:20:57.362Z,-12.53
2022-12-13T04:23:25.224Z,-12.58
2022-12-13T04:25:54.353Z,-12.64
2022-12-13T04:28:23.091Z,-12.75
2022-12-13T04:30:54.887Z,-12.77
2022-12-13T04:33:22.944Z,-12.79
2022-12-13T04:35:51.590Z,-12.80
2022-12-13T04:38:19.801Z,-12.83
2022-12-13T04:40:47.514Z,-12.86
2022-12-13T04:43:16.583Z,-12.91
2022-12-13T04:45:44.347Z,-12.91
2022-12-13T04:48:12.078Z,-12.91
2022-12-13T04:50:39.760Z,-12.97
2022-12-13T04:53:07.483Z,-12.93
2022-12-13T04:55:35.202Z,-13.04
2022-12-13T04:58:02.930Z,-13.05
2022-12-13T05:00:32.206Z,-13.15
2022-12-13T05:02:59.908Z,-13.16
2022-12-13T05:05:27.592Z,-13.16
2022-12-13T05:07:55.338Z,-13.11
2022-12-13T05:10:36.046Z,-13.10
2022-12-13T05:13:05.942Z,-13.11
2022-12-13T05:15:35.441Z,-13.13
2022-12-13T05:18:09.754Z,-13.20
2022-12-13T05:20:39.798Z,-13.25
2022-12-13T05:23:07.798Z,-13.32
2022-12-13T05:25:36.773Z,-13.33
2022-12-13T05:28:28.306Z,-13.40
2022-12-13T05:30:54.347Z,-13.43
2022-12-13T05:33:22.100Z,-13.43
2022-12-13T05:35:49.824Z,-13.49
2022-12-13T05:38:17.669Z,-13.49
2022-12-13T05:40:45.840Z,-13.51
2022-12-13T05:43:21.963Z,-13.53
2022-12-13T05:45:50.263Z,-13.59
2022-12-13T05:48:24.837Z,-13.59
2022-12-13T05:50:52.677Z,-13.67
2022-12-13T05:53:39.398Z,-13.65
2022-12-13T05:56:07.461Z,-13.73
2022-12-13T05:58:35.641Z,-13.73
2022-12-13T06:01:08.669Z,-13.76
2022-12-13T06:03:37.881Z,-13.85
2022-12-13T06:06:07.029Z,-13.88
2022-12-13T06:08:34.870Z,-13.82
2022-12-13T06:11:10.345Z,-13.84
2022-12-13T06:13:42.626Z,-13.85
2022-12-13T06:16:22.640Z,-13.90
2022-12-13T06:19:02.759Z,-14.00
2022-12-13T06:21:41.165Z,-14.04
2022-12-13T06:24:13.644Z,-14.16
2022-12-13T06:26:41.341Z,-14.07
2022-12-13T06:29:10.402Z,-14.14
2022-12-13T06:31:38.132Z,-14.15
2022-12-13T06:34:14.356Z,-14.20
2022-12-13T06:36:45.047Z,-14.17
2022-12-13T06:39:15.656Z,-14.17
2022-12-13T06:41:45.215Z,-14.30
2022-12-13T06:44:12.909Z,-14.33
2022-12-13T06:46:40.766Z,-14.38
2022-12-13T06:49:10.128Z,-14.36
2022-12-13T06:51:37.866Z,-14.34
2022-12-13T06:54:05.605Z,-14.29
2022-12-13T06:56:33.798Z,-14.24
2022-12-13T06:59:02.401Z,-14.25
2022-12-13T07:01:37.796Z,-14.23
2022-12-13T07:04:30.719Z,-14.25
2022-12-13T07:06:55.500Z,-14.28
2022-12-13T07:09:30.265Z,-14.28
2022-12-13T07:11:58.008Z,-14.19
2022-12-13T07:14:25.759Z,-14.13
2022-12-13T07:16:59.437Z,-14.08
2022-12-13T07:19:34.958Z,-14.04
2022-12-13T07:22:05.745Z,-14.00
2022-12-13T07:24:34.983Z,-14.02
2022-12-13T07:27:03.013Z,-13.98
2022-12-13T07:29:30.714Z,-13.90
2022-12-13T07:32:01.397Z,-13.88
2022-12-13T07:34:29.978Z,-13.84
2022-12-13T07:36:57.729Z,-13.75
2022-12-13T07:39:27.138Z,-13.72
2022-12-13T07:41:56.052Z,-13.63
2022-12-13T07:44:24.166Z,-13.62
2022-12-13T07:46:51.917Z,-13.52
2022-12-13T07:49:19.729Z,-13.34
2022-12-13T07:51:47.444Z,-13.13
2022-12-13T07:54:15.175Z,-12.89
2022-12-13T07:56:44.344Z,-12.77
2022-12-13T07:59:13.635Z,-12.72
2022-12-13T08:01:41.429Z,-12.62
2022-12-13T08:04:09.254Z,-12.45
2022-12-13T08:06:38.991Z,-12.26
2022-12-13T08:09:06.962Z,-12.13
2022-12-13T08:11:34.877Z,-12.04
2022-12-13T08:14:04.064Z,-11.93
2022-12-13T08:16:31.900Z,-11.75
2022-12-13T08:19:02.850Z,-11.60
2022-12-13T08:21:53.918Z,-11.40
2022-12-13T08:24:22.529Z,-11.21
2022-12-13T08:26:50.257Z,-11.10
2022-12-13T08:29:22.974Z,-11.00
2022-12-13T08:32:02.150Z,-10.72
2022-12-13T08:34:30.246Z,-10.43
2022-12-13T08:37:02.285Z,-10.14
2022-12-13T08:39:34.245Z,-9.87
2022-12-13T08:42:15.514Z,-9.60
2022-12-13T08:44:47.877Z,-9.24
2022-12-13T08:47:24.134Z,-8.92
2022-12-13T08:50:02.043Z,-8.64
2022-12-13T08:52:31.771Z,-8.36
2022-12-13T08:54:59.577Z,-8.10
2022-12-13T08:57:27.460Z,-7.85
2022-12-13T08:59:56.571Z,-7.58
2022-12-13T09:02:24.337Z,-7.35
2022-12-13T09:04:52.048Z,-7.31
2022-12-13T09:07:19.800Z,-7.02
2022-12-13T09:09:47.522Z,-6.83
2022-12-13T09:12:30.256Z,-6.70
2022-12-13T09:15:01.561Z,-6.43
2022-12-13T09:17:37.156Z,-6.16
2022-12-13T09:20:28.112Z,-5.99
2022-12-13T09:23:01.757Z,-5.69
2022-12-13T09:25:36.723Z,-5.64
2022-12-13T09:28:06.800Z,-5.59
2022-12-13T09:30:39.302Z,-5.19
2022-12-13T09:33:28.117Z,-5.02
2022-12-13T09:35:54.833Z,-4.73
2022-12-13T09:38:22.565Z,-4.59
2022-12-13T09:40:58.947Z,-4.46
2022-12-13T09:43:32.435Z,-4.09
2022-12-13T09:46:22.183Z,-4.05
2022-12-13T09:48:52.979Z,-3.97
2022-12-13T09:51:29.950Z,-3.71
2022-12-13T09:54:08.701Z,-3.24
2022-12-13T09:56:36.393Z,-2.96
2022-12-13T09:59:04.153Z,-2.78
2022-12-13T10:01:34.644Z,-2.74
2022-12-13T10:04:02.487Z,-2.88
2022-12-13T10:06:32.715Z,-2.96
2022-12-13T10:09:01.930Z,-3.03
2022-12-13T10:11:31.399Z,-3.08
2022-12-13T10:14:05.186Z,-3.26
2022-12-13T10:16:44.957Z,-3.05
2022-12-13T10:19:28.087Z,-3.25
2022-12-13T10:22:01.265Z,-3.56
2022-12-13T10:24:48.185Z,-3.12
2022-12-13T10:27:18.142Z,-2.95
2022-12-13T10:30:03.208Z,-2.70
2022-12-13T10:32:37.624Z,-2.65
2022-12-13T10:35:21.525Z,-2.50
2022-12-13T10:37:49.474Z,-2.46
2022-12-13T10:40:33.326Z,-2.11
2022-12-13T10:43:10.141Z,-1.97
2022-12-13T10:45:38.498Z,-1.92
2022-12-13T10:48:18.333Z,-1.85
2022-12-13T10:50:58.345Z,-1.73
2022-12-13T10:53:30.728Z,-1.75
2022-12-13T10:56:02.320Z,-1.54
2022-12-13T10:58:39.142Z,-1.41
2022-12-13T11:01:22.417Z,-1.28
2022-12-13T11:04:02.384Z,-1.12
2022-12-13T11:06:43.414Z,-1.36
2022-12-13T11:09:22.919Z,-1.52
2022-12-13T11:11:58.858Z,-1.73
2022-12-13T11:14:31.590Z,-1.79
2022-12-13T11:17:06.910Z,-1.84
2022-12-13T11:19:40.113Z,-1.86
2022-12-13T11:22:10.520Z,-1.56
2022-12-13T11:24:42.270Z,-1.19
2022-12-13T11:27:29.630Z,-0.90
2022-12-13T11:30:10.006Z,-0.64
2022-12-13T11:32:59.032Z,-0.77
2022-12-13T11:35:33.897Z,-0.82
2022-12-13T11:38:11.824Z,-0.35
2022-12-13T11:40:46.682Z,-0.12
2022-12-13T11:43:24.646Z,0.03
2022-12-13T11:45:56.364Z,-0.18
2022-12-13T11:48:32.074Z,-0.02
2022-12-13T11:51:02.320Z,-0.24
2022-12-13T11:53:34.692Z,-0.05
2022-12-13T11:56:09.247Z,0.02
2022-12-13T12:01:38.409Z,-0.04
2022-12-13T12:04:17.415Z,-0.34
2022-12-13T12:06:53.089Z,-0.45
2022-12-13T12:09:24.090Z,-0.80
2022-12-13T12:12:00.075Z,-0.74
2022-12-13T12:14:38.391Z,-0.79
2022-12-13T12:17:06.655Z,-0.76
2022-12-13T12:19:38.119Z,-0.60
2022-12-13T12:22:22.976Z,-0.54
2022-12-13T12:25:04.014Z,-0.72
2022-12-13T12:27:40.058Z,-0.59
2022-12-13T12:30:22.722Z,-0.53
2022-12-13T12:33:01.676Z,-0.61
2022-12-13T12:36:04.398Z,-0.42
2022-12-13T12:39:15.720Z,-0.47
2022-12-13T12:41:55.881Z,-0.59
2022-12-13T12:44:37.373Z,-1.09
2022-12-13T12:47:38.248Z,-1.47
2022-12-13T12:50:24.787Z,-1.72
2022-12-13T12:53:22.331Z,-2.00
2022-12-13T12:56:03.074Z,-2.29
2022-12-13T12:58:39.443Z,-2.33
2022-12-13T13:01:23.173Z,-2.46
2022-12-13T13:03:53.357Z,-2.41
2022-12-13T13:06:34.684Z,-2.52
2022-12-13T13:09:06.384Z,-2.49
2022-12-13T13:11:42.992Z,-2.57
2022-12-13T13:14:28.247Z,-2.56
2022-12-13T13:16:56.299Z,-2.45
2022-12-13T13:19:44.063Z,-2.34
2022-12-13T13:22:32.304Z,-2.50
2022-12-13T13:25:14.786Z,-2.49
2022-12-13T13:27:45.393Z,-2.54
2022-12-13T13:30:19.403Z,-2.64
2022-12-13T13:32:48.305Z,-2.74
2022-12-13T13:35:53.610Z,-2.79
2022-12-13T13:39:01.192Z,-2.76
2022-12-13T13:42:09.026Z,-2.87
2022-12-13T13:45:06.458Z,-2.85
2022-12-13T13:47:41.993Z,-2.83
2022-12-13T13:50:49.703Z,-2.50
2022-12-13T13:54:02.145Z,-1.93
2022-12-13T13:57:07.498Z,-1.63
2022-12-13T14:00:11.965Z,-0.80
2022-12-13T14:03:22.214Z,-0.33
2022-12-13T14:06:15.762Z,0.00
2022-12-13T14:09:00.437Z,-0.16
2022-12-13T14:12:16.311Z,-0.83
2022-12-13T14:15:07.413Z,-1.31
2022-12-13T14:18:30.746Z,-1.91
2022-12-13T14:21:07.195Z,-2.14
2022-12-13T14:23:49.665Z,-2.74
2022-12-13T14:26:28.888Z,-2.87
2022-12-13T14:28:59.545Z,-3.25
2022-12-13T14:31:37.146Z,-3.46
2022-12-13T14:34:07.517Z,-4.03
2022-12-13T14:36:39.119Z,-4.11
2022-12-13T14:39:25.298Z,-4.45
2022-12-13T14:41:56.816Z,-4.78
2022-12-13T14:44:27.489Z,-4.99
2022-12-13T14:46:57.827Z,-5.15
2022-12-13T14:49:28.468Z,-5.34
2022-12-13T14:52:01.668Z,-5.41
2022-12-13T14:54:37.253Z,-5.46
2022-12-13T14:57:05.835Z,-5.65
2022-12-13T14:59:36.506Z,-5.76
2022-12-13T15:02:06.592Z,-5.80
2022-12-13T15:04:37.839Z,-6.02
2022-12-13T15:07:10.263Z,-6.13
2022-12-13T15:09:40.429Z,-6.19
2022-12-13T15:12:15.269Z,-6.30
2022-12-13T15:14:58.477Z,-6.42
2022-12-13T15:17:34.972Z,-6.53
2022-12-13T15:20:03.394Z,-6.55
2022-12-13T15:22:32.560Z,-6.67
2022-12-13T15:25:01.361Z,-6.76
2022-12-13T15:27:29.353Z,-6.78
2022-12-13T15:29:57.287Z,-6.87
2022-12-13T15:32:25.049Z,-6.93
2022-12-13T15:34:53.332Z,-6.88
2022-12-13T15:37:29.032Z,-6.93
2022-12-13T15:40:02.974Z,-6.96
2022-12-13T15:42:34.640Z,-6.96
2022-12-13T15:45:04.193Z,-7.08
2022-12-13T15:47:32.333Z,-7.12
2022-12-13T15:50:02.086Z,-7.12
2022-12-13T15:52:36.833Z,-7.20
2022-12-13T15:57:59.264Z,-7.31
2022-12-13T16:00:31.196Z,-7.34
2022-12-13T16:03:08.862Z,-7.40
2022-12-13T16:05:39.531Z,-7.36
2022-12-13T16:08:13.984Z,-7.41
2022-12-13T16:10:47.858Z,-7.33
2022-12-13T16:13:26.130Z,-7.41
2022-12-13T16:16:00.452Z,-7.33
2022-12-13T16:18:44.620Z,-7.31
2022-12-13T16:21:12.311Z,-7.33
2022-12-13T16:23:40.015Z,-7.37
2022-12-13T16:26:21.619Z,-7.40
2022-12-13T16:28:50.712Z,-7.41
2022-12-13T16:31:20.967Z,-7.39
2022-12-13T16:33:48.775Z,-7.42
2022-12-13T16:36:16.933Z,-7.40
2022-12-13T16:38:44.875Z,-7.41
2022-12-13T16:41:14.640Z,-7.42
2022-12-13T16:43:53.381Z,-7.43
2022-12-13T16:47:13.709Z,-7.40
2022-12-13T16:49:19.426Z,-7.38
2022-12-13T16:51:48.757Z,-7.41
2022-12-13T16:54:17.086Z,-7.40
2022-12-13T16:56:44.827Z,-7.45
2022-12-13T16:59:16.524Z,-7.49
2022-12-13T17:01:45.282Z,-7.59
2022-12-13T17:04:18.066Z,-7.61
2022-12-13T17:06:48.152Z,-7.66
2022-12-13T17:09:15.858Z,-7.68
2022-12-13T17:11:43.594Z,-7.66
2022-12-13T17:14:11.520Z,-7.75
2022-12-13T17:16:40.602Z,-7.83
2022-12-13T17:19:08.443Z,-7.92
2022-12-13T17:21:36.128Z,-7.98
2022-12-13T17:24:04.032Z,-8.02
2022-12-13T17:26:31.923Z,-8.07
2022-12-13T17:28:59.697Z,-8.16
2022-12-13T17:31:34.727Z,-8.12
2022-12-13T17:34:05.367Z,-8.18
2022-12-13T17:36:33.250Z,-8.23
2022-12-13T17:39:01.020Z,-8.26
2022-12-13T17:41:28.769Z,-8.27
2022-12-13T17:43:59.648Z,-8.35
2022-12-13T17:46:27.462Z,-8.34
2022-12-13T17:48:55.279Z,-8.42
2022-12-13T17:51:24.442Z,-8.41
2022-12-13T17:53:52.282Z,-8.45
2022-12-13T17:56:20.377Z,-8.51
2022-12-13T17:58:48.146Z,-8.58
2022-12-13T18:01:18.265Z,-8.52
2022-12-13T18:03:47.906Z,-8.57
2022-12-13T18:06:16.383Z,-8.57
2022-12-13T18:08:47.042Z,-8.55
2022-12-13T18:11:33.812Z,-8.52
2022-12-13T18:14:02.618Z,-8.44
2022-12-13T18:16:36.306Z,-8.34
2022-12-13T18:19:06.917Z,-8.31
2022-12-13T18:21:36.626Z,-8.29
2022-12-13T18:24:07.289Z,-8.24
2022-12-13T18:26:35.703Z,-8.19
2022-12-13T18:29:04.835Z,-8.23
2022-12-13T18:31:32.730Z,-8.32
2022-12-13T18:34:00.857Z,-8.32
2022-12-13T18:36:28.878Z,-8.36
2022-12-13T18:38:56.931Z,-8.32
2022-12-13T18:41:28.217Z,-8.34
2022-12-13T18:43:59.609Z,-8.44
2022-12-13T18:46:28.771Z,-8.46
2022-12-13T18:48:56.869Z,-8.50
2022-12-13T18:51:25.464Z,-8.51
2022-12-13T18:53:53.361Z,-8.52
2022-12-13T18:56:21.258Z,-8.57
2022-12-13T18:58:51.921Z,-8.53
2022-12-13T19:01:20.096Z,-8.47
2022-12-13T19:03:49.506Z,-8.38
2022-12-13T19:06:19.361Z,-8.32
2022-12-13T19:08:49.561Z,-8.26
2022-12-13T19:11:17.537Z,-8.31
2022-12-13T19:13:45.365Z,-8.33
2022-12-13T19:16:17.208Z,-8.24
2022-12-13T19:18:45.538Z,-8.09
2022-12-13T19:21:16.346Z,-8.10
2022-12-13T19:23:47.323Z,-8.07
2022-12-13T19:26:18.200Z,-8.00
2022-12-13T19:28:46.616Z,-8.06
2022-12-13T19:31:16.955Z,-8.05
2022-12-13T19:33:45.624Z,-8.08
2022-12-13T19:36:13.557Z,-8.07
2022-12-13T19:38:42.138Z,-8.03
2022-12-13T19:41:16.327Z,-8.01
2022-12-13T19:43:50.766Z,-7.95
2022-12-13T19:46:22.535Z,-7.95
2022-12-13T19:48:50.797Z,-7.96
2022-12-13T19:51:18.730Z,-7.90
2022-12-13T19:53:46.852Z,-7.92
2022-12-13T19:56:17.809Z,-7.88
2022-12-13T19:58:47.187Z,-7.85
2022-12-13T20:01:15.453Z,-7.82
2022-12-13T20:03:46.417Z,-7.79
2022-12-13T20:06:17.406Z,-7.73
2022-12-13T20:08:46.063Z,-7.72
2022-12-13T20:11:15.872Z,-7.72
2022-12-13T20:13:44.280Z,-7.60
2022-12-13T20:16:17.573Z,-7.55
2022-12-13T20:18:47.404Z,-7.50
2022-12-13T20:21:16.011Z,-7.55
2022-12-13T20:23:48.796Z,-7.45
2022-12-13T20:26:20.405Z,-7.45
2022-12-13T20:28:49.064Z,-7.48
2022-12-13T20:31:19.656Z,-7.41
2022-12-13T20:33:49.982Z,-7.48
2022-12-13T20:36:25.234Z,-7.58
2022-12-13T20:38:56.125Z,-7.62
2022-12-13T20:41:26.296Z,-7.53
2022-12-13T20:43:56.312Z,-7.45
2022-12-13T20:46:25.293Z,-7.45
2022-12-13T20:48:56.212Z,-7.50
2022-12-13T20:51:25.940Z,-7.52
2022-12-13T20:53:55.894Z,-7.47
2022-12-13T20:56:25.870Z,-7.31
2022-12-13T20:58:54.095Z,-7.32
2022-12-13T21:01:24.356Z,-7.30
2022-12-13T21:03:56.570Z,-7.14
2022-12-13T21:06:24.983Z,-7.11
2022-12-13T21:08:54.553Z,-7.04
2022-12-13T21:11:27.364Z,-7.09
2022-12-13T21:14:02.278Z,-6.99
2022-12-13T21:16:37.163Z,-6.97
2022-12-13T21:19:08.563Z,-6.90
2022-12-13T21:21:36.623Z,-6.91
2022-12-13T21:24:07.604Z,-6.93
2022-12-13T21:26:36.568Z,-6.86
2022-12-13T21:29:07.404Z,-6.85
2022-12-13T21:31:36.382Z,-6.86
2022-12-13T21:34:06.846Z,-6.84
2022-12-13T21:36:36.426Z,-6.82
2022-12-13T21:39:07.359Z,-6.87
2022-12-13T21:41:35.103Z,-6.86
2022-12-13T21:44:02.948Z,-6.77
2022-12-13T21:47:02.900Z,-6.78
2022-12-13T21:49:20.851Z,-6.69
2022-12-13T21:51:48.759Z,-6.68
2022-12-13T21:54:17.492Z,-6.69
2022-12-13T21:57:02.879Z,-6.62
2022-12-13T21:59:30.952Z,-6.67
2022-12-13T22:02:15.984Z,-6.65
2022-12-13T22:04:47.684Z,-6.76
2022-12-13T22:07:17.704Z,-6.77
2022-12-13T22:09:45.976Z,-6.74
2022-12-13T22:12:20.482Z,-6.69
2022-12-13T22:14:48.875Z,-6.70
2022-12-13T22:17:17.274Z,-6.68
2022-12-13T22:19:48.358Z,-6.59
2022-12-13T22:22:17.450Z,-6.53
2022-12-13T22:24:49.843Z,-6.41
2022-12-13T22:27:23.893Z,-6.33
2022-12-13T22:29:54.914Z,-6.27
2022-12-13T22:32:22.652Z,-6.23
2022-12-13T22:34:51.800Z,-6.22
2022-12-13T22:37:20.487Z,-6.24
2022-12-13T22:39:48.962Z,-6.30
2022-12-13T22:42:16.753Z,-6.25
2022-12-13T22:44:44.627Z,-6.23
2022-12-13T22:47:12.382Z,-6.23
2022-12-13T22:49:40.233Z,-6.26
2022-12-13T22:52:09.728Z,-6.14
2022-12-13T22:54:37.566Z,-6.10
2022-12-13T23:03:10.143Z,-6.18
2022-12-13T23:05:38.191Z,-6.17
2022-12-13T23:08:06.313Z,-6.13
2022-12-13T23:10:51.579Z,-6.06
2022-12-13T23:13:19.558Z,-6.02
2022-12-13T23:15:49.428Z,-6.08
2022-12-13T23:18:18.798Z,-5.92
2022-12-13T23:20:48.448Z,-5.92
2022-12-13T23:23:16.335Z,-6.01
2022-12-13T23:25:44.024Z,-6.07
2022-12-13T23:28:16.649Z,-6.09
2022-12-13T23:30:44.331Z,-6.04
2022-12-13T23:33:12.136Z,-5.99
2022-12-13T23:35:41.734Z,-5.94
2022-12-13T23:38:09.389Z,-5.98
2022-12-13T23:40:37.044Z,-5.95
2022-12-13T23:43:04.752Z,-5.92
2022-12-13T23:45:32.511Z,-5.91
2022-12-13T23:48:00.188Z,-5.91
2022-12-13T23:50:29.392Z,-5.93
2022-12-13T23:52:58.443Z,-5.90
2022-12-13T23:55:26.107Z,-5.90
2022-12-13T23:57:53.776Z,-5.92
